sensor_id;sensor_type;location;lat;lon;timestamp;pressure;altitude;pressure_sealevel;temperature;humidity
8160;BME280;27404;52.398;9.646;2023-03-26T00:00:41;99704.28;;;6.49;100.00
8160;BME280;27404;52.398;9.646;2023-03-26T00:03:10;99700.75;;;6.49;100.00
8160;BME280;27404;52.398;9.646;2023-03-26T00:05:37;99707.09;;;6.43;100.00
8160;BME280;27404;52.398;9.646;2023-03-26T00:08:03;99706.22;;;6.30;100.00
8160;BME280;27404;52.398;9.646;2023-03-26T00:10:28;99702.19;;;6.21;100.00
8160;BME280;27404;52.398;9.646;2023-03-26T00:12:54;99707.72;;;6.14;100.00
8160;BME280;27404;52.398;9.646;2023-03-26T00:15:19;99717.19;;;6.24;100.00
8160;BME280;27404;52.398;9.646;2023-03-26T00:17:45;99715.69;;;6.28;100.00
8160;BME280;27404;52.398;9.646;2023-03-26T00:20:12;99722.28;;;6.32;100.00
8160;BME280;27404;52.398;9.646;2023-03-26T00:22:39;99724.31;;;6.36;100.00
8160;BME280;27404;52.398;9.646;2023-03-26T00:25:05;99725.38;;;6.35;100.00
8160;BME280;27404;52.398;9.646;2023-03-26T00:27:31;99719.38;;;6.45;100.00
8160;BME280;27404;52.398;9.646;2023-03-26T00:29:58;99735.94;;;6.56;100.00
8160;BME280;27404;52.398;9.646;2023-03-26T00:32:26;99729.69;;;6.55;100.00
8160;BME280;27404;52.398;9.646;2023-03-26T00:34:56;99722.16;;;6.57;100.00
8160;BME280;27404;52.398;9.646;2023-03-26T00:37:22;99738.19;;;6.59;100.00
8160;BME280;27404;52.398;9.646;2023-03-26T00:39:52;99733.69;;;6.52;100.00
8160;BME280;27404;52.398;9.646;2023-03-26T00:42:17;99751.63;;;6.54;100.00
8160;BME280;27404;52.398;9.646;2023-03-26T00:44:43;99747.72;;;6.49;100.00
8160;BME280;27404;52.398;9.646;2023-03-26T00:47:08;99743.72;;;6.52;100.00
8160;BME280;27404;52.398;9.646;2023-03-26T00:49:34;99752.09;;;6.50;100.00
8160;BME280;27404;52.398;9.646;2023-03-26T00:51:59;99749.38;;;6.50;100.00
8160;BME280;27404;52.398;9.646;2023-03-26T00:54:27;99753.28;;;6.55;100.00
8160;BME280;27404;52.398;9.646;2023-03-26T00:56:52;99752.94;;;6.51;100.00
8160;BME280;27404;52.398;9.646;2023-03-26T00:59:21;99748.31;;;6.51;100.00
8160;BME280;27404;52.398;9.646;2023-03-26T01:01:47;99752.78;;;6.46;100.00
8160;BME280;27404;52.398;9.646;2023-03-26T01:04:33;99754.91;;;6.44;100.00
8160;BME280;27404;52.398;9.646;2023-03-26T01:07:17;99761.16;;;6.44;100.00
8160;BME280;27404;52.398;9.646;2023-03-26T01:09:48;99754.16;;;6.36;100.00
8160;BME280;27404;52.398;9.646;2023-03-26T01:12:18;99755.81;;;6.37;100.00
8160;BME280;27404;52.398;9.646;2023-03-26T01:14:52;99765.31;;;6.47;100.00
8160;BME280;27404;52.398;9.646;2023-03-26T01:17:19;99765.38;;;6.40;100.00
8160;BME280;27404;52.398;9.646;2023-03-26T01:19:50;99762.06;;;6.38;100.00
8160;BME280;27404;52.398;9.646;2023-03-26T01:22:20;99758.28;;;6.39;100.00
8160;BME280;27404;52.398;9.646;2023-03-26T01:24:47;99752.88;;;6.39;100.00
8160;BME280;27404;52.398;9.646;2023-03-26T01:35:47;99764.63;;;6.33;100.00
8160;BME280;27404;52.398;9.646;2023-03-26T01:41:10;99751.16;;;6.26;100.00
8160;BME280;27404;52.398;9.646;2023-03-26T01:43:38;99752.47;;;6.24;100.00
8160;BME280;27404;52.398;9.646;2023-03-26T01:46:10;99749.00;;;6.16;100.00
8160;BME280;27404;52.398;9.646;2023-03-26T01:48:39;99744.34;;;6.05;100.00
8160;BME280;27404;52.398;9.646;2023-03-26T01:51:07;99749.06;;;6.10;100.00
8160;BME280;27404;52.398;9.646;2023-03-26T01:53:43;99748.25;;;6.09;100.00
8160;BME280;27404;52.398;9.646;2023-03-26T02:04:56;99744.88;;;5.95;100.00
8160;BME280;27404;52.398;9.646;2023-03-26T02:07:36;99742.66;;;5.85;100.00
8160;BME280;27404;52.398;9.646;2023-03-26T02:10:24;99742.81;;;5.72;100.00
8160;BME280;27404;52.398;9.646;2023-03-26T02:12:50;99745.25;;;5.61;100.00
8160;BME280;27404;52.398;9.646;2023-03-26T02:15:16;99741.53;;;5.56;100.00
8160;BME280;27404;52.398;9.646;2023-03-26T02:17:42;99743.91;;;5.45;100.00
8160;BME280;27404;52.398;9.646;2023-03-26T02:20:09;99739.41;;;5.39;100.00
8160;BME280;27404;52.398;9.646;2023-03-26T02:22:36;99743.56;;;5.42;100.00
8160;BME280;27404;52.398;9.646;2023-03-26T02:25:10;99746.03;;;5.43;100.00
8160;BME280;27404;52.398;9.646;2023-03-26T02:27:37;99740.59;;;5.43;100.00
8160;BME280;27404;52.398;9.646;2023-03-26T02:30:05;99740.16;;;5.46;100.00
8160;BME280;27404;52.398;9.646;2023-03-26T02:32:31;99745.13;;;5.49;100.00
8160;BME280;27404;52.398;9.646;2023-03-26T02:34:56;99736.41;;;5.47;100.00
8160;BME280;27404;52.398;9.646;2023-03-26T02:37:22;99743.44;;;5.55;100.00
8160;BME280;27404;52.398;9.646;2023-03-26T02:39:47;99746.75;;;5.57;100.00
8160;BME280;27404;52.398;9.646;2023-03-26T02:42:13;99740.38;;;5.63;100.00
8160;BME280;27404;52.398;9.646;2023-03-26T02:44:40;99741.31;;;5.57;100.00
8160;BME280;27404;52.398;9.646;2023-03-26T02:47:06;99747.03;;;5.68;100.00
8160;BME280;27404;52.398;9.646;2023-03-26T02:49:31;99747.03;;;5.68;100.00
8160;BME280;27404;52.398;9.646;2023-03-26T02:51:58;99743.34;;;5.62;100.00
8160;BME280;27404;52.398;9.646;2023-03-26T02:54:23;99746.81;;;5.69;100.00
8160;BME280;27404;52.398;9.646;2023-03-26T02:56:49;99745.53;;;5.72;100.00
8160;BME280;27404;52.398;9.646;2023-03-26T02:59:15;99742.59;;;5.73;100.00
8160;BME280;27404;52.398;9.646;2023-03-26T03:01:40;99734.00;;;5.76;100.00
8160;BME280;27404;52.398;9.646;2023-03-26T03:04:10;99735.44;;;5.79;100.00
8160;BME280;27404;52.398;9.646;2023-03-26T03:06:36;99732.13;;;5.77;100.00
8160;BME280;27404;52.398;9.646;2023-03-26T03:09:04;99728.75;;;5.82;100.00
8160;BME280;27404;52.398;9.646;2023-03-26T03:11:30;99722.47;;;5.81;100.00
8160;BME280;27404;52.398;9.646;2023-03-26T03:13:55;99718.19;;;5.73;100.00
8160;BME280;27404;52.398;9.646;2023-03-26T03:16:21;99724.72;;;5.66;100.00
8160;BME280;27404;52.398;9.646;2023-03-26T03:18:47;99726.47;;;5.60;100.00
8160;BME280;27404;52.398;9.646;2023-03-26T03:21:24;99703.97;;;5.59;100.00
8160;BME280;27404;52.398;9.646;2023-03-26T03:23:50;99711.72;;;5.56;100.00
8160;BME280;27404;52.398;9.646;2023-03-26T03:26:18;99713.38;;;5.57;100.00
8160;BME280;27404;52.398;9.646;2023-03-26T03:28:47;99710.94;;;5.48;100.00
8160;BME280;27404;52.398;9.646;2023-03-26T03:31:12;99709.91;;;5.49;100.00
8160;BME280;27404;52.398;9.646;2023-03-26T03:33:38;99700.19;;;5.60;100.00
8160;BME280;27404;52.398;9.646;2023-03-26T03:36:06;99710.91;;;5.55;100.00
8160;BME280;27404;52.398;9.646;2023-03-26T03:38:36;99705.78;;;5.47;100.00
8160;BME280;27404;52.398;9.646;2023-03-26T03:41:02;99704.75;;;5.41;100.00
8160;BME280;27404;52.398;9.646;2023-03-26T03:43:27;99701.25;;;5.41;100.00
8160;BME280;27404;52.398;9.646;2023-03-26T03:45:53;99700.56;;;5.27;100.00
8160;BME280;27404;52.398;9.646;2023-03-26T03:48:18;99698.28;;;5.24;100.00
8160;BME280;27404;52.398;9.646;2023-03-26T03:50:44;99703.75;;;5.17;100.00
8160;BME280;27404;52.398;9.646;2023-03-26T03:53:09;99703.00;;;5.10;100.00
8160;BME280;27404;52.398;9.646;2023-03-26T03:55:40;99709.97;;;4.99;100.00
8160;BME280;27404;52.398;9.646;2023-03-26T03:58:07;99710.69;;;4.87;100.00
8160;BME280;27404;52.398;9.646;2023-03-26T04:00:34;99713.63;;;4.86;100.00
8160;BME280;27404;52.398;9.646;2023-03-26T04:03:03;99710.16;;;4.79;100.00
8160;BME280;27404;52.398;9.646;2023-03-26T04:05:31;99713.56;;;4.67;100.00
8160;BME280;27404;52.398;9.646;2023-03-26T04:07:57;99715.66;;;4.65;100.00
8160;BME280;27404;52.398;9.646;2023-03-26T04:10:24;99717.31;;;4.66;100.00
8160;BME280;27404;52.398;9.646;2023-03-26T04:12:50;99717.97;;;4.62;100.00
8160;BME280;27404;52.398;9.646;2023-03-26T04:15:15;99727.34;;;4.59;100.00
8160;BME280;27404;52.398;9.646;2023-03-26T04:17:41;99728.16;;;4.66;100.00
8160;BME280;27404;52.398;9.646;2023-03-26T04:20:09;99732.13;;;4.64;100.00
8160;BME280;27404;52.398;9.646;2023-03-26T04:22:39;99731.28;;;4.63;100.00
8160;BME280;27404;52.398;9.646;2023-03-26T04:25:07;99736.25;;;4.66;100.00
8160;BME280;27404;52.398;9.646;2023-03-26T04:27:33;99734.97;;;4.69;100.00
8160;BME280;27404;52.398;9.646;2023-03-26T04:30:01;99737.88;;;4.74;100.00
8160;BME280;27404;52.398;9.646;2023-03-26T04:32:29;99748.66;;;4.81;100.00
8160;BME280;27404;52.398;9.646;2023-03-26T04:34:59;99734.44;;;4.85;100.00
8160;BME280;27404;52.398;9.646;2023-03-26T04:37:50;99740.28;;;4.89;100.00
8160;BME280;27404;52.398;9.646;2023-03-26T04:40:19;99730.66;;;4.93;100.00
8160;BME280;27404;52.398;9.646;2023-03-26T04:42:46;99731.81;;;5.04;100.00
8160;BME280;27404;52.398;9.646;2023-03-26T04:45:16;99727.22;;;5.04;100.00
8160;BME280;27404;52.398;9.646;2023-03-26T04:47:46;99724.66;;;5.10;100.00
8160;BME280;27404;52.398;9.646;2023-03-26T04:50:13;99724.22;;;5.13;100.00
8160;BME280;27404;52.398;9.646;2023-03-26T04:52:38;99723.72;;;5.23;100.00
8160;BME280;27404;52.398;9.646;2023-03-26T04:55:06;99721.47;;;5.19;100.00
8160;BME280;27404;52.398;9.646;2023-03-26T04:57:41;99721.06;;;5.16;100.00
8160;BME280;27404;52.398;9.646;2023-03-26T05:00:13;99710.94;;;5.04;100.00
8160;BME280;27404;52.398;9.646;2023-03-26T05:02:43;99714.09;;;5.01;100.00
8160;BME280;27404;52.398;9.646;2023-03-26T05:05:10;99711.63;;;5.00;100.00
8160;BME280;27404;52.398;9.646;2023-03-26T05:07:36;99710.84;;;4.93;100.00
8160;BME280;27404;52.398;9.646;2023-03-26T05:10:02;99708.38;;;4.91;100.00
8160;BME280;27404;52.398;9.646;2023-03-26T05:12:28;99710.19;;;4.97;100.00
8160;BME280;27404;52.398;9.646;2023-03-26T05:14:54;99706.06;;;4.95;100.00
8160;BME280;27404;52.398;9.646;2023-03-26T05:17:21;99699.69;;;5.08;100.00
8160;BME280;27404;52.398;9.646;2023-03-26T05:19:49;99705.50;;;5.11;100.00
8160;BME280;27404;52.398;9.646;2023-03-26T05:22:16;99698.34;;;5.17;100.00
8160;BME280;27404;52.398;9.646;2023-03-26T05:24:42;99701.50;;;5.14;100.00
8160;BME280;27404;52.398;9.646;2023-03-26T05:27:07;99706.78;;;5.27;100.00
8160;BME280;27404;52.398;9.646;2023-03-26T05:29:33;99705.56;;;5.23;100.00
8160;BME280;27404;52.398;9.646;2023-03-26T05:31:58;99706.78;;;5.27;100.00
8160;BME280;27404;52.398;9.646;2023-03-26T05:34:24;99707.16;;;5.31;100.00
8160;BME280;27404;52.398;9.646;2023-03-26T05:36:51;99711.31;;;5.33;100.00
8160;BME280;27404;52.398;9.646;2023-03-26T05:39:17;99704.53;;;5.24;100.00
8160;BME280;27404;52.398;9.646;2023-03-26T05:41:42;99696.25;;;5.19;100.00
8160;BME280;27404;52.398;9.646;2023-03-26T05:44:08;99705.53;;;5.30;100.00
8160;BME280;27404;52.398;9.646;2023-03-26T05:46:33;99710.19;;;5.41;100.00
8160;BME280;27404;52.398;9.646;2023-03-26T05:48:59;99723.84;;;5.53;100.00
8160;BME280;27404;52.398;9.646;2023-03-26T05:51:24;99709.75;;;5.63;100.00
8160;BME280;27404;52.398;9.646;2023-03-26T05:53:50;99706.34;;;5.68;100.00
8160;BME280;27404;52.398;9.646;2023-03-26T05:56:15;99708.59;;;5.71;100.00
8160;BME280;27404;52.398;9.646;2023-03-26T05:58:41;99708.16;;;5.74;100.00
8160;BME280;27404;52.398;9.646;2023-03-26T06:01:10;99706.50;;;5.73;100.00
8160;BME280;27404;52.398;9.646;2023-03-26T06:03:42;99709.47;;;5.71;100.00
8160;BME280;27404;52.398;9.646;2023-03-26T06:06:14;99701.91;;;5.73;100.00
8160;BME280;27404;52.398;9.646;2023-03-26T06:08:48;99702.22;;;5.84;100.00
8160;BME280;27404;52.398;9.646;2023-03-26T06:11:15;99698.34;;;5.91;100.00
8160;BME280;27404;52.398;9.646;2023-03-26T06:13:41;99694.13;;;5.96;100.00
8160;BME280;27404;52.398;9.646;2023-03-26T06:16:08;99694.13;;;5.96;100.00
8160;BME280;27404;52.398;9.646;2023-03-26T06:18:34;99694.66;;;6.04;100.00
8160;BME280;27404;52.398;9.646;2023-03-26T06:21:00;99690.31;;;6.03;100.00
8160;BME280;27404;52.398;9.646;2023-03-26T06:23:25;99681.69;;;6.06;100.00
8160;BME280;27404;52.398;9.646;2023-03-26T06:25:51;99683.16;;;6.09;100.00
8160;BME280;27404;52.398;9.646;2023-03-26T06:28:16;99682.31;;;6.08;100.00
8160;BME280;27404;52.398;9.646;2023-03-26T06:30:42;99684.34;;;6.13;100.00
8160;BME280;27404;52.398;9.646;2023-03-26T06:33:07;99680.94;;;6.18;100.00
8160;BME280;27404;52.398;9.646;2023-03-26T06:35:33;99671.72;;;6.19;100.00
8160;BME280;27404;52.398;9.646;2023-03-26T06:37:58;99672.72;;;6.25;100.00
8160;BME280;27404;52.398;9.646;2023-03-26T06:40:24;99678.38;;;6.35;100.00
8160;BME280;27404;52.398;9.646;2023-03-26T06:42:49;99676.41;;;6.42;100.00
8160;BME280;27404;52.398;9.646;2023-03-26T06:45:15;99677.59;;;6.46;100.00
8160;BME280;27404;52.398;9.646;2023-03-26T06:47:41;99668.75;;;6.51;100.00
8160;BME280;27404;52.398;9.646;2023-03-26T06:50:06;99674.06;;;6.58;100.00
8160;BME280;27404;52.398;9.646;2023-03-26T06:52:32;99673.41;;;6.62;100.00
8160;BME280;27404;52.398;9.646;2023-03-26T06:54:58;99672.81;;;6.60;100.00
8160;BME280;27404;52.398;9.646;2023-03-26T06:57:23;99677.28;;;6.66;100.00
8160;BME280;27404;52.398;9.646;2023-03-26T06:59:48;99673.53;;;6.79;100.00
8160;BME280;27404;52.398;9.646;2023-03-26T07:02:14;99672.22;;;6.82;100.00
8160;BME280;27404;52.398;9.646;2023-03-26T07:04:39;99664.56;;;6.91;100.00
8160;BME280;27404;52.398;9.646;2023-03-26T07:07:05;99666.91;;;6.99;100.00
8160;BME280;27404;52.398;9.646;2023-03-26T07:09:31;99661.72;;;7.09;100.00
8160;BME280;27404;52.398;9.646;2023-03-26T07:11:57;99671.41;;;7.17;100.00
8160;BME280;27404;52.398;9.646;2023-03-26T07:14:23;99664.06;;;7.30;100.00
8160;BME280;27404;52.398;9.646;2023-03-26T07:16:49;99656.56;;;7.61;100.00
8160;BME280;27404;52.398;9.646;2023-03-26T07:19:15;99651.41;;;7.88;100.00
8160;BME280;27404;52.398;9.646;2023-03-26T07:21:41;99645.56;;;7.96;100.00
8160;BME280;27404;52.398;9.646;2023-03-26T07:24:09;99639.00;;;8.09;100.00
8160;BME280;27404;52.398;9.646;2023-03-26T07:27:20;99636.97;;;8.17;100.00
8160;BME280;27404;52.398;9.646;2023-03-26T07:29:48;99642.66;;;8.15;100.00
8160;BME280;27404;52.398;9.646;2023-03-26T07:40:51;99643.69;;;8.43;100.00
8160;BME280;27404;52.398;9.646;2023-03-26T07:45:46;99638.41;;;9.44;100.00
8160;BME280;27404;52.398;9.646;2023-03-26T07:48:23;99638.41;;;9.66;100.00
8160;BME280;27404;52.398;9.646;2023-03-26T07:50:53;99635.94;;;9.65;100.00
8160;BME280;27404;52.398;9.646;2023-03-26T07:53:20;99631.06;;;9.67;100.00
8160;BME280;27404;52.398;9.646;2023-03-26T07:56:20;99623.69;;;9.67;100.00
8160;BME280;27404;52.398;9.646;2023-03-26T07:59:19;99627.06;;;9.52;100.00
8160;BME280;27404;52.398;9.646;2023-03-26T08:08:10;99621.66;;;9.35;100.00
8160;BME280;27404;52.398;9.646;2023-03-26T08:18:43;99622.16;;;9.54;100.00
8160;BME280;27404;52.398;9.646;2023-03-26T08:21:18;99623.94;;;9.66;100.00
8160;BME280;27404;52.398;9.646;2023-03-26T08:26:38;99622.38;;;9.97;100.00
8160;BME280;27404;52.398;9.646;2023-03-26T08:29:31;99626.19;;;10.23;100.00
8160;BME280;27404;52.398;9.646;2023-03-26T08:32:00;99623.47;;;10.23;100.00
8160;BME280;27404;52.398;9.646;2023-03-26T08:34:27;99628.84;;;10.41;100.00
8160;BME280;27404;52.398;9.646;2023-03-26T08:36:53;99634.47;;;10.61;100.00
8160;BME280;27404;52.398;9.646;2023-03-26T08:39:18;99630.47;;;10.74;100.00
8160;BME280;27404;52.398;9.646;2023-03-26T08:53:07;99623.13;;;11.87;100.00
8160;BME280;27404;52.398;9.646;2023-03-26T09:12:48;99616.16;;;11.00;100.00
8160;BME280;27404;52.398;9.646;2023-03-26T09:15:27;99617.25;;;10.99;100.00
8160;BME280;27404;52.398;9.646;2023-03-26T09:32:38;99610.44;;;10.63;100.00
8160;BME280;27404;52.398;9.646;2023-03-26T09:35:13;99609.88;;;10.61;100.00
8160;BME280;27404;52.398;9.646;2023-03-26T09:40:57;99615.94;;;10.36;100.00
8160;BME280;27404;52.398;9.646;2023-03-26T09:57:47;99611.09;;;9.88;100.00
8160;BME280;27404;52.398;9.646;2023-03-26T10:00:40;99608.72;;;10.25;100.00
8160;BME280;27404;52.398;9.646;2023-03-26T10:03:39;99615.03;;;10.30;100.00
8160;BME280;27404;52.398;9.646;2023-03-26T10:09:28;99611.00;;;10.65;100.00
8160;BME280;27404;52.398;9.646;2023-03-26T10:12:26;99592.34;;;10.95;100.00
8160;BME280;27404;52.398;9.646;2023-03-26T10:15:03;99601.88;;;10.87;100.00
8160;BME280;27404;52.398;9.646;2023-03-26T10:20:34;99597.69;;;11.22;100.00
8160;BME280;27404;52.398;9.646;2023-03-26T10:23:45;99598.22;;;11.19;100.00
8160;BME280;27404;52.398;9.646;2023-03-26T10:36:31;99574.72;;;12.59;100.00
8160;BME280;27404;52.398;9.646;2023-03-26T10:42:23;99588.47;;;12.44;99.62
8160;BME280;27404;52.398;9.646;2023-03-26T10:56:06;99583.44;;;13.03;93.76
8160;BME280;27404;52.398;9.646;2023-03-26T10:58:38;99576.28;;;13.17;92.05
8160;BME280;27404;52.398;9.646;2023-03-26T11:01:11;99576.88;;;12.99;93.66
8160;BME280;27404;52.398;9.646;2023-03-26T11:03:49;99572.81;;;12.81;91.55
8160;BME280;27404;52.398;9.646;2023-03-26T11:06:25;99572.75;;;13.01;92.31
8160;BME280;27404;52.398;9.646;2023-03-26T11:16:42;99562.59;;;11.73;100.00
8160;BME280;27404;52.398;9.646;2023-03-26T11:19:43;99563.78;;;12.18;99.28
8160;BME280;27404;52.398;9.646;2023-03-26T11:33:05;99558.56;;;12.42;91.82
8160;BME280;27404;52.398;9.646;2023-03-26T11:35:36;99560.19;;;12.85;90.81
8160;BME280;27404;52.398;9.646;2023-03-26T11:38:09;99554.34;;;13.12;90.81
8160;BME280;27404;52.398;9.646;2023-03-26T11:40:40;99558.53;;;12.89;93.64
8160;BME280;27404;52.398;9.646;2023-03-26T11:43:08;99559.91;;;12.76;91.31
8160;BME280;27404;52.398;9.646;2023-03-26T11:45:38;99558.47;;;12.99;88.59
8160;BME280;27404;52.398;9.646;2023-03-26T11:50:46;99546.25;;;12.55;89.51
8160;BME280;27404;52.398;9.646;2023-03-26T11:53:18;99555.56;;;12.13;94.04
8160;BME280;27404;52.398;9.646;2023-03-26T11:55:50;99554.69;;;11.92;97.47
8160;BME280;27404;52.398;9.646;2023-03-26T11:58:34;99551.84;;;11.45;98.66
8160;BME280;27404;52.398;9.646;2023-03-26T12:01:11;99551.25;;;11.38;100.00
8160;BME280;27404;52.398;9.646;2023-03-26T12:03:38;99548.03;;;11.51;100.00
8160;BME280;27404;52.398;9.646;2023-03-26T12:06:04;99536.44;;;11.29;100.00
8160;BME280;27404;52.398;9.646;2023-03-26T12:08:37;99544.50;;;10.98;100.00
8160;BME280;27404;52.398;9.646;2023-03-26T12:11:07;99539.94;;;10.65;100.00
8160;BME280;27404;52.398;9.646;2023-03-26T12:13:49;99542.22;;;10.79;100.00
8160;BME280;27404;52.398;9.646;2023-03-26T12:16:19;99539.66;;;11.15;100.00
8160;BME280;27404;52.398;9.646;2023-03-26T12:19:01;99534.34;;;11.51;100.00
8160;BME280;27404;52.398;9.646;2023-03-26T12:21:30;99533.31;;;11.89;100.00
8160;BME280;27404;52.398;9.646;2023-03-26T12:24:23;99538.31;;;12.12;98.00
8160;BME280;27404;52.398;9.646;2023-03-26T12:26:55;99535.03;;;12.16;97.56
8160;BME280;27404;52.398;9.646;2023-03-26T12:29:21;99539.13;;;12.13;98.95
8160;BME280;27404;52.398;9.646;2023-03-26T12:32:07;99539.81;;;11.51;100.00
8160;BME280;27404;52.398;9.646;2023-03-26T12:34:38;99539.75;;;11.36;100.00
8160;BME280;27404;52.398;9.646;2023-03-26T12:37:05;99533.38;;;11.15;100.00
8160;BME280;27404;52.398;9.646;2023-03-26T12:39:38;99533.59;;;11.03;100.00
8160;BME280;27404;52.398;9.646;2023-03-26T12:42:23;99532.31;;;10.68;100.00
8160;BME280;27404;52.398;9.646;2023-03-26T12:44:55;99529.81;;;10.66;100.00
8160;BME280;27404;52.398;9.646;2023-03-26T12:47:29;99526.84;;;10.68;100.00
8160;BME280;27404;52.398;9.646;2023-03-26T12:49:57;99533.78;;;10.86;100.00
8160;BME280;27404;52.398;9.646;2023-03-26T12:55:17;99539.00;;;10.44;100.00
8160;BME280;27404;52.398;9.646;2023-03-26T12:58:05;99541.59;;;10.66;100.00
8160;BME280;27404;52.398;9.646;2023-03-26T13:00:52;99532.25;;;10.57;100.00
8160;BME280;27404;52.398;9.646;2023-03-26T13:03:32;99537.41;;;11.02;100.00
8160;BME280;27404;52.398;9.646;2023-03-26T13:09:45;99535.69;;;10.85;100.00
8160;BME280;27404;52.398;9.646;2023-03-26T13:12:29;99533.88;;;10.58;100.00
8160;BME280;27404;52.398;9.646;2023-03-26T13:29:04;99524.09;;;10.30;100.00
8160;BME280;27404;52.398;9.646;2023-03-26T13:31:44;99522.72;;;10.60;100.00
8160;BME280;27404;52.398;9.646;2023-03-26T13:37:33;99527.94;;;10.34;100.00
8160;BME280;27404;52.398;9.646;2023-03-26T13:40:28;99523.84;;;10.69;100.00
8160;BME280;27404;52.398;9.646;2023-03-26T13:43:21;99531.09;;;9.88;100.00
8160;BME280;27404;52.398;9.646;2023-03-26T13:46:09;99528.91;;;10.17;100.00
8160;BME280;27404;52.398;9.646;2023-03-26T13:48:49;99527.13;;;10.01;100.00
8160;BME280;27404;52.398;9.646;2023-03-26T13:54:13;99522.16;;;10.25;100.00
8160;BME280;27404;52.398;9.646;2023-03-26T13:56:49;99526.22;;;10.55;100.00
8160;BME280;27404;52.398;9.646;2023-03-26T13:59:18;99517.91;;;10.40;100.00
8160;BME280;27404;52.398;9.646;2023-03-26T14:01:54;99519.16;;;10.27;100.00
8160;BME280;27404;52.398;9.646;2023-03-26T14:04:31;99528.91;;;10.17;100.00
8160;BME280;27404;52.398;9.646;2023-03-26T14:07:12;99531.41;;;10.19;100.00
8160;BME280;27404;52.398;9.646;2023-03-26T14:12:31;99523.91;;;9.76;100.00
8160;BME280;27404;52.398;9.646;2023-03-26T14:15:14;99527.72;;;9.75;100.00
8160;BME280;27404;52.398;9.646;2023-03-26T14:27:32;99528.94;;;9.90;100.00
8160;BME280;27404;52.398;9.646;2023-03-26T14:33:00;99538.88;;;9.46;100.00
8160;BME280;27404;52.398;9.646;2023-03-26T14:38:46;99533.22;;;9.53;100.00
8160;BME280;27404;52.398;9.646;2023-03-26T14:41:28;99534.13;;;9.64;100.00
8160;BME280;27404;52.398;9.646;2023-03-26T14:49:28;99537.28;;;9.51;100.00
8160;BME280;27404;52.398;9.646;2023-03-26T14:54:35;99540.38;;;9.59;100.00
8160;BME280;27404;52.398;9.646;2023-03-26T14:57:45;99540.09;;;9.61;100.00
8160;BME280;27404;52.398;9.646;2023-03-26T15:03:42;99548.09;;;9.68;100.00
8160;BME280;27404;52.398;9.646;2023-03-26T15:29:01;99536.94;;;8.58;100.00
8160;BME280;27404;52.398;9.646;2023-03-26T15:47:57;99550.06;;;8.61;100.00
8160;BME280;27404;52.398;9.646;2023-03-26T15:53:25;99553.72;;;8.38;100.00
8160;BME280;27404;52.398;9.646;2023-03-26T15:56:33;99552.25;;;8.30;100.00
8160;BME280;27404;52.398;9.646;2023-03-26T15:59:32;99558.84;;;8.17;100.00
8160;BME280;27404;52.398;9.646;2023-03-26T16:05:06;99562.38;;;8.18;100.00
8160;BME280;27404;52.398;9.646;2023-03-26T16:07:47;99557.34;;;8.09;100.00
8160;BME280;27404;52.398;9.646;2023-03-26T16:10:28;99564.22;;;8.12;100.00
8160;BME280;27404;52.398;9.646;2023-03-26T16:16:23;99560.50;;;8.18;100.00
8160;BME280;27404;52.398;9.646;2023-03-26T16:18:57;99566.44;;;8.15;100.00
8160;BME280;27404;52.398;9.646;2023-03-26T16:29:24;99567.97;;;7.65;100.00
8160;BME280;27404;52.398;9.646;2023-03-26T16:32:03;99578.53;;;7.61;100.00
8160;BME280;27404;52.398;9.646;2023-03-26T16:34:48;99576.63;;;7.62;100.00
8160;BME280;27404;52.398;9.646;2023-03-26T16:37:35;99587.19;;;7.58;100.00
8160;BME280;27404;52.398;9.646;2023-03-26T16:46:14;99587.56;;;7.38;100.00
8160;BME280;27404;52.398;9.646;2023-03-26T16:49:05;99583.44;;;7.35;100.00
8160;BME280;27404;52.398;9.646;2023-03-26T16:54:38;99587.16;;;7.17;100.00
8160;BME280;27404;52.398;9.646;2023-03-26T17:05:36;99606.56;;;7.09;100.00
8160;BME280;27404;52.398;9.646;2023-03-26T17:08:17;99615.06;;;7.01;100.00
8160;BME280;27404;52.398;9.646;2023-03-26T17:11:00;99608.44;;;6.96;100.00
8160;BME280;27404;52.398;9.646;2023-03-26T17:14:34;99617.41;;;6.85;100.00
8160;BME280;27404;52.398;9.646;2023-03-26T17:16:46;99618.84;;;6.88;100.00
8160;BME280;27404;52.398;9.646;2023-03-26T17:22:03;99628.53;;;6.84;100.00
8160;BME280;27404;52.398;9.646;2023-03-26T17:24:39;99632.06;;;6.72;100.00
8160;BME280;27404;52.398;9.646;2023-03-26T17:27:27;99638.22;;;6.79;100.00
8160;BME280;27404;52.398;9.646;2023-03-26T17:35:47;99656.25;;;6.50;100.00
8160;BME280;27404;52.398;9.646;2023-03-26T17:43:32;99657.97;;;6.32;100.00
8160;BME280;27404;52.398;9.646;2023-03-26T17:45:58;99668.47;;;6.29;100.00
8160;BME280;27404;52.398;9.646;2023-03-26T17:48:26;99670.78;;;6.13;100.00
8160;BME280;27404;52.398;9.646;2023-03-26T17:50:56;99677.47;;;6.11;100.00
8160;BME280;27404;52.398;9.646;2023-03-26T17:53:30;99684.06;;;6.03;100.00
8160;BME280;27404;52.398;9.646;2023-03-26T17:56:00;99684.59;;;5.93;100.00
8160;BME280;27404;52.398;9.646;2023-03-26T17:58:33;99693.09;;;5.78;100.00
8160;BME280;27404;52.398;9.646;2023-03-26T18:01:21;99696.66;;;5.78;100.00
8160;BME280;27404;52.398;9.646;2023-03-26T18:03:49;99697.75;;;5.71;100.00
8160;BME280;27404;52.398;9.646;2023-03-26T18:06:48;99709.16;;;5.61;100.00
8160;BME280;27404;52.398;9.646;2023-03-26T18:09:40;99716.22;;;5.62;100.00
8160;BME280;27404;52.398;9.646;2023-03-26T18:18:29;99721.91;;;5.35;100.00
8160;BME280;27404;52.398;9.646;2023-03-26T18:20:51;99727.06;;;5.25;100.00
8160;BME280;27404;52.398;9.646;2023-03-26T18:23:28;99735.00;;;5.19;100.00
8160;BME280;27404;52.398;9.646;2023-03-26T18:26:08;99736.28;;;5.17;100.00
8160;BME280;27404;52.398;9.646;2023-03-26T18:28:40;99743.97;;;5.20;100.00
8160;BME280;27404;52.398;9.646;2023-03-26T18:31:14;99741.94;;;5.15;100.00
8160;BME280;27404;52.398;9.646;2023-03-26T18:33:46;99747.63;;;5.07;100.00
8160;BME280;27404;52.398;9.646;2023-03-26T18:36:14;99755.78;;;5.00;100.00
8160;BME280;27404;52.398;9.646;2023-03-26T18:38:40;99758.06;;;5.03;100.00
8160;BME280;27404;52.398;9.646;2023-03-26T18:41:15;99752.69;;;4.97;100.00
8160;BME280;27404;52.398;9.646;2023-03-26T18:43:42;99763.19;;;4.86;100.00
8160;BME280;27404;52.398;9.646;2023-03-26T18:46:10;99762.03;;;4.76;100.00